createdAt,value
2018-11-28T00:01:37.927Z,98.03
2018-11-28T00:04:08.132Z,98.24
2018-11-28T00:06:37.657Z,98.19
2018-11-28T00:09:09.815Z,98.52
2018-11-28T00:11:39.290Z,98.08
2018-11-28T00:14:09.113Z,98.47
2018-11-28T00:16:38.676Z,99.00
2018-11-28T00:19:08.748Z,99.05
2018-11-28T00:21:38.182Z,98.54
2018-11-28T00:24:08.288Z,98.58
2018-11-28T00:26:37.570Z,98.84
2018-11-28T00:29:07.159Z,98.71
2018-11-28T00:31:36.886Z,99.07
2018-11-28T00:34:07.027Z,98.56
2018-11-28T00:36:36.395Z,98.18
2018-11-28T00:39:08.551Z,98.58
2018-11-28T00:41:38.541Z,98.46
2018-11-28T00:44:08.021Z,98.34
2018-11-28T00:46:37.620Z,98.63
2018-11-28T00:49:07.222Z,98.72
2018-11-28T00:51:36.701Z,98.42
2018-11-28T00:54:07.655Z,98.55
2018-11-28T00:56:37.095Z,98.72
2018-11-28T00:59:06.896Z,98.21
2018-11-28T01:01:36.241Z,98.70
2018-11-28T01:04:05.993Z,98.67
2018-11-28T01:06:35.593Z,98.34
2018-11-28T01:09:06.801Z,98.56
2018-11-28T01:11:36.104Z,98.22
2018-11-28T01:14:05.781Z,98.10
2018-11-28T01:16:35.445Z,98.46
2018-11-28T01:19:05.249Z,98.50
2018-11-28T01:21:34.832Z,98.45
2018-11-28T01:24:05.140Z,97.79
2018-11-28T01:26:34.431Z,97.75
2018-11-28T01:29:03.921Z,97.56
2018-11-28T01:31:34.788Z,97.60
2018-11-28T01:34:04.221Z,97.53
2018-11-28T01:36:34.091Z,97.60
2018-11-28T01:39:03.987Z,97.93
2018-11-28T01:41:33.570Z,97.96
2018-11-28T01:44:03.532Z,98.14
2018-11-28T01:46:32.976Z,98.09
2018-11-28T01:49:03.160Z,97.77
2018-11-28T01:51:32.475Z,97.96
2018-11-28T01:54:01.742Z,98.00
2018-11-28T01:56:31.790Z,97.98
2018-11-28T01:59:01.130Z,98.35
2018-11-28T02:01:30.435Z,98.30
2018-11-28T02:04:00.342Z,98.21
2018-11-28T02:06:30.813Z,97.87
2018-11-28T02:09:00.133Z,97.64
2018-11-28T02:11:30.030Z,98.03
2018-11-28T02:13:59.333Z,97.63
2018-11-28T02:16:28.677Z,98.11
2018-11-28T02:18:58.665Z,98.15
2018-11-28T02:21:28.128Z,97.94
2018-11-28T02:23:58.957Z,98.00
2018-11-28T02:26:28.351Z,98.01
2018-11-28T02:28:57.730Z,98.07
2018-11-28T02:31:27.382Z,98.25
2018-11-28T02:33:56.946Z,98.01
2018-11-28T02:36:26.421Z,97.89
2018-11-28T02:38:55.965Z,97.86
2018-11-28T02:41:25.610Z,97.64
2018-11-28T02:43:55.070Z,97.61
2018-11-28T02:46:30.475Z,97.43
2018-11-28T02:49:00.078Z,97.40
2018-11-28T02:51:29.422Z,97.23
2018-11-28T02:53:58.730Z,97.61
2018-11-28T02:56:28.759Z,97.32
2018-11-28T02:58:58.955Z,97.70
2018-11-28T03:01:28.462Z,97.56
2018-11-28T03:03:58.526Z,97.92
2018-11-28T03:06:28.447Z,98.08
2018-11-28T03:08:57.897Z,97.68
2018-11-28T03:11:27.360Z,97.40
2018-11-28T03:13:57.201Z,97.33
2018-11-28T03:16:26.494Z,97.34
2018-11-28T03:18:56.637Z,97.84
2018-11-28T03:21:26.677Z,97.66
2018-11-28T03:23:56.107Z,97.93
2018-11-28T03:26:26.227Z,97.73
2018-11-28T03:28:56.050Z,98.09
2018-11-28T03:31:25.614Z,98.13
2018-11-28T03:33:55.071Z,98.03
2018-11-28T03:36:25.249Z,98.30
2018-11-28T03:38:55.030Z,98.65
2018-11-28T03:41:24.533Z,98.47
2018-11-28T03:43:54.636Z,99.01
2018-11-28T03:46:24.028Z,98.85
2018-11-28T03:48:54.127Z,99.05
2018-11-28T03:51:23.518Z,98.61
2018-11-28T03:53:53.768Z,98.54
2018-11-28T03:56:23.395Z,99.02
2018-11-28T03:58:53.066Z,98.70
2018-11-28T04:01:22.533Z,98.52
2018-11-28T04:03:52.397Z,99.12
2018-11-28T04:06:21.862Z,100.00
2018-11-28T04:08:51.916Z,100.00
2018-11-28T04:11:22.983Z,100.00
2018-11-28T04:13:52.386Z,100.00
2018-11-28T04:16:23.490Z,100.00
2018-11-28T04:18:53.367Z,100.00
2018-11-28T04:21:23.121Z,100.00
2018-11-28T04:23:53.858Z,100.00
2018-11-28T04:26:24.132Z,100.00
2018-11-28T04:28:54.326Z,100.00
2018-11-28T04:31:24.641Z,100.00
2018-11-28T04:33:54.761Z,100.00
2018-11-28T04:36:27.088Z,100.00
2018-11-28T04:38:57.034Z,100.00
2018-11-28T04:41:30.129Z,100.00
2018-11-28T04:44:00.462Z,100.00
2018-11-28T04:46:30.617Z,100.00
2018-11-28T04:49:00.711Z,100.00
2018-11-28T04:51:30.268Z,100.00
2018-11-28T04:54:00.467Z,100.00
2018-11-28T04:56:30.587Z,100.00
2018-11-28T04:59:00.122Z,100.00
2018-11-28T05:01:29.794Z,100.00
2018-11-28T05:03:59.922Z,100.00
2018-11-28T05:07:43.329Z,100.00
2018-11-28T05:10:24.483Z,100.00
2018-11-28T05:12:54.499Z,100.00
2018-11-28T05:15:28.858Z,100.00
2018-11-28T05:17:58.450Z,100.00
2018-11-28T05:20:29.162Z,100.00
2018-11-28T05:22:59.206Z,100.00
2018-11-28T05:25:29.351Z,100.00
2018-11-28T05:27:59.603Z,100.00
2018-11-28T05:30:30.113Z,100.00
2018-11-28T05:33:00.081Z,100.00
2018-11-28T05:35:33.255Z,100.00
2018-11-28T05:38:04.263Z,100.00
2018-11-28T05:40:33.869Z,100.00
2018-11-28T05:43:03.696Z,100.00
2018-11-28T05:45:33.115Z,100.00
2018-11-28T05:48:03.038Z,100.00
2018-11-28T05:50:33.304Z,100.00
2018-11-28T05:53:03.664Z,100.00
2018-11-28T05:55:33.719Z,100.00
2018-11-28T05:58:03.820Z,100.00
2018-11-28T06:00:38.534Z,100.00
2018-11-28T06:03:09.148Z,100.00
2018-11-28T06:05:38.515Z,100.00
2018-11-28T06:08:08.539Z,100.00
2018-11-28T06:10:38.959Z,100.00
2018-11-28T06:13:10.524Z,100.00
2018-11-28T06:15:40.125Z,100.00
2018-11-28T06:18:10.400Z,100.00
2018-11-28T06:20:39.744Z,100.00
2018-11-28T06:23:09.771Z,100.00
2018-11-28T06:25:39.547Z,100.00
2018-11-28T06:28:09.187Z,100.00
2018-11-28T06:30:39.412Z,100.00
2018-11-28T06:33:10.557Z,100.00
2018-11-28T06:35:39.872Z,100.00
2018-11-28T06:38:09.250Z,100.00
2018-11-28T06:40:39.147Z,100.00
2018-11-28T06:43:09.378Z,100.00
2018-11-28T06:45:38.796Z,100.00
2018-11-28T06:48:09.327Z,100.00
2018-11-28T06:50:40.463Z,100.00
2018-11-28T06:53:10.405Z,100.00
2018-11-28T06:55:40.513Z,100.00
2018-11-28T06:58:10.894Z,100.00
2018-11-28T07:00:40.930Z,100.00
2018-11-28T07:03:10.989Z,100.00
2018-11-28T07:05:41.191Z,100.00
2018-11-28T07:08:11.463Z,100.00
2018-11-28T07:10:42.757Z,100.00
2018-11-28T07:13:12.807Z,100.00
2018-11-28T07:15:43.365Z,100.00
2018-11-28T07:18:23.932Z,100.00
2018-11-28T07:20:54.467Z,100.00
2018-11-28T07:23:24.409Z,100.00
2018-11-28T07:25:54.058Z,100.00
2018-11-28T07:28:23.998Z,100.00
2018-11-28T07:30:53.993Z,100.00
2018-11-28T07:33:24.712Z,100.00
2018-11-28T07:35:54.577Z,100.00
2018-11-28T07:38:24.428Z,100.00
2018-11-28T07:40:54.678Z,100.00
2018-11-28T07:43:24.214Z,100.00
2018-11-28T07:45:54.069Z,100.00
2018-11-28T07:48:24.294Z,100.00
2018-11-28T07:50:53.679Z,100.00
2018-11-28T07:53:23.670Z,100.00
2018-11-28T07:55:53.474Z,100.00
2018-11-28T07:58:23.109Z,100.00
2018-11-28T08:00:52.469Z,100.00
2018-11-28T08:03:22.515Z,100.00
2018-11-28T08:05:52.074Z,100.00
2018-11-28T08:08:45.989Z,100.00
2018-11-28T08:11:22.626Z,100.00
2018-11-28T08:13:52.579Z,100.00
2018-11-28T08:16:21.930Z,100.00
2018-11-28T08:18:51.278Z,100.00
2018-11-28T08:21:21.594Z,100.00
2018-11-28T08:23:51.582Z,100.00
2018-11-28T08:26:20.984Z,100.00
2018-11-28T08:28:50.564Z,100.00
2018-11-28T08:31:20.066Z,100.00
2018-11-28T08:33:50.351Z,99.80
2018-11-28T08:36:20.400Z,99.70
2018-11-28T08:38:50.786Z,99.00
2018-11-28T08:41:20.333Z,97.80
2018-11-28T08:43:49.699Z,97.23
2018-11-28T08:46:19.628Z,96.76
2018-11-28T08:48:49.134Z,96.95
2018-11-28T08:51:18.743Z,95.24
2018-11-28T08:53:48.924Z,94.32
2018-11-28T08:56:19.096Z,94.04
2018-11-28T08:58:48.560Z,93.98
2018-11-28T09:01:18.582Z,93.67
2018-11-28T09:03:47.947Z,92.85
2018-11-28T09:06:18.112Z,91.65
2018-11-28T09:08:47.821Z,91.38
2018-11-28T09:11:17.245Z,90.94
2018-11-28T09:13:46.645Z,90.66
2018-11-28T09:16:16.161Z,90.24
2018-11-28T09:18:45.995Z,89.14
2018-11-28T09:21:15.896Z,88.94
2018-11-28T09:23:45.474Z,88.31
2018-11-28T09:26:20.672Z,88.33
2018-11-28T09:28:50.594Z,88.53
2018-11-28T09:31:19.999Z,88.56
2018-11-28T09:33:50.316Z,88.11
2018-11-28T09:36:20.414Z,87.75
2018-11-28T09:38:49.720Z,87.09
2018-11-28T09:41:19.801Z,85.78
2018-11-28T09:43:49.208Z,85.16
2018-11-28T09:46:19.456Z,84.82
2018-11-28T09:48:49.339Z,85.55
2018-11-28T09:51:18.627Z,85.98
2018-11-28T09:53:48.201Z,85.55
2018-11-28T09:56:17.720Z,85.30
2018-11-28T09:58:47.202Z,86.22
2018-11-28T10:01:17.546Z,86.15
2018-11-28T10:03:47.763Z,87.14
2018-11-28T10:06:17.182Z,86.32
2018-11-28T10:08:46.601Z,86.16
2018-11-28T10:11:16.371Z,86.25
2018-11-28T10:13:45.725Z,85.16
2018-11-28T10:16:15.820Z,85.14
2018-11-28T10:18:45.817Z,84.18
2018-11-28T10:21:15.526Z,83.93
2018-11-28T10:23:45.371Z,82.96
2018-11-28T10:26:14.950Z,80.41
2018-11-28T10:28:45.055Z,80.03
2018-11-28T10:31:16.511Z,80.20
2018-11-28T10:33:45.955Z,79.75
2018-11-28T10:36:15.443Z,80.12
2018-11-28T10:38:44.707Z,79.70
2018-11-28T10:41:14.982Z,79.63
2018-11-28T10:43:44.621Z,76.74
2018-11-28T10:46:14.245Z,76.62
2018-11-28T10:48:44.492Z,77.08
2018-11-28T10:51:13.770Z,75.78
2018-11-28T10:53:43.472Z,75.51
2018-11-28T10:56:12.991Z,74.51
2018-11-28T10:58:42.441Z,74.60
2018-11-28T11:01:17.407Z,74.52
2018-11-28T11:03:51.928Z,74.47
2018-11-28T11:06:26.461Z,73.91
2018-11-28T11:09:01.150Z,72.50
2018-11-28T11:11:35.908Z,72.54
2018-11-28T11:14:10.608Z,70.01
2018-11-28T11:16:40.220Z,70.54
2018-11-28T11:19:10.481Z,69.80
2018-11-28T11:21:40.808Z,68.75
2018-11-28T11:24:10.541Z,69.23
2018-11-28T11:26:39.905Z,67.29
2018-11-28T11:29:09.526Z,64.59
2018-11-28T11:31:39.123Z,62.77
2018-11-28T11:34:08.906Z,60.60
2018-11-28T11:36:38.652Z,59.14
2018-11-28T11:39:08.810Z,57.29
2018-11-28T11:41:39.002Z,52.73
2018-11-28T11:44:09.266Z,53.95
2018-11-28T11:46:38.616Z,51.44
2018-11-28T11:49:08.511Z,48.42
2018-11-28T11:51:38.005Z,49.07
2018-11-28T11:54:08.024Z,48.59
2018-11-28T11:56:37.390Z,48.17
2018-11-28T11:59:07.407Z,47.66
2018-11-28T12:01:36.730Z,47.81
2018-11-28T12:04:06.173Z,47.82
2018-11-28T12:06:35.633Z,47.27
2018-11-28T12:09:08.249Z,48.72
2018-11-28T12:11:37.738Z,49.44
2018-11-28T12:14:07.326Z,50.85
2018-11-28T12:16:36.863Z,51.38
2018-11-28T12:19:06.696Z,51.59
2018-11-28T12:21:36.932Z,51.81
2018-11-28T12:24:06.536Z,52.61
2018-11-28T12:26:36.972Z,53.29
2018-11-28T12:29:07.216Z,51.97
2018-11-28T12:31:37.096Z,52.18
2018-11-28T12:34:07.361Z,52.51
2018-11-28T12:36:36.766Z,54.39
2018-11-28T12:39:10.512Z,53.43
2018-11-28T12:41:39.885Z,54.68
2018-11-28T12:44:09.371Z,53.03
2018-11-28T12:46:39.257Z,52.90
2018-11-28T12:49:08.507Z,52.47
2018-11-28T12:51:37.934Z,51.54
2018-11-28T12:54:08.207Z,51.68
2018-11-28T12:56:37.810Z,51.73
2018-11-28T12:59:07.402Z,52.53
2018-11-28T13:01:36.884Z,52.45
2018-11-28T13:04:07.335Z,53.08
2018-11-28T13:06:36.886Z,52.82
2018-11-28T13:09:07.437Z,54.50
2018-11-28T13:11:37.007Z,54.23
2018-11-28T13:14:06.907Z,53.88
2018-11-28T13:16:36.731Z,54.81
2018-11-28T13:19:06.683Z,55.66
2018-11-28T13:21:36.211Z,56.35
2018-11-28T13:24:06.363Z,56.19
2018-11-28T13:26:36.092Z,56.87
2018-11-28T13:29:06.253Z,57.09
2018-11-28T13:31:35.949Z,57.24
2018-11-28T13:34:06.244Z,56.72
2018-11-28T13:36:35.646Z,57.95
2018-11-28T13:39:06.155Z,58.22
2018-11-28T13:41:35.836Z,58.85
2018-11-28T13:44:05.336Z,59.38
2018-11-28T13:46:35.211Z,59.14
2018-11-28T13:49:05.709Z,59.88
2018-11-28T13:51:35.366Z,59.77
2018-11-28T13:54:20.797Z,59.90
2018-11-28T13:59:04.303Z,60.91
2018-11-28T14:01:34.536Z,60.50
2018-11-28T14:04:04.037Z,60.66
2018-11-28T14:06:33.805Z,61.83
2018-11-28T14:09:04.952Z,62.27
2018-11-28T14:11:34.441Z,61.84
2018-11-28T14:14:05.432Z,61.87
2018-11-28T14:16:34.783Z,62.22
2018-11-28T14:19:04.261Z,62.33
2018-11-28T14:21:33.923Z,62.85
2018-11-28T14:24:04.338Z,62.67
2018-11-28T14:26:33.714Z,62.87
2018-11-28T14:29:03.527Z,63.89
2018-11-28T14:31:33.886Z,64.10
2018-11-28T14:34:03.393Z,64.56
2018-11-28T14:36:33.408Z,65.14
2018-11-28T14:39:02.856Z,64.67
2018-11-28T14:41:33.620Z,65.09
2018-11-28T14:44:02.264Z,65.24
2018-11-28T14:46:32.128Z,65.12
2018-11-28T14:49:02.312Z,65.40
2018-11-28T14:51:32.663Z,66.41
2018-11-28T14:54:02.784Z,66.60
2018-11-28T14:56:32.269Z,66.50
2018-11-28T14:59:02.332Z,67.72
2018-11-28T15:01:32.551Z,68.25
2018-11-28T15:04:02.706Z,68.17
2018-11-28T15:06:34.928Z,68.85
2018-11-28T15:09:12.921Z,69.06
2018-11-28T15:11:43.514Z,69.62
2018-11-28T15:14:13.156Z,69.72
2018-11-28T15:16:43.302Z,70.39
2018-11-28T15:19:12.658Z,70.66
2018-11-28T15:21:42.929Z,70.65
2018-11-28T15:24:13.004Z,71.33
2018-11-28T15:26:42.277Z,71.09
2018-11-28T15:29:11.692Z,71.79
2018-11-28T15:31:41.609Z,72.43
2018-11-28T15:34:11.304Z,73.13
2018-11-28T15:36:41.013Z,73.38
2018-11-28T15:39:11.224Z,73.19
2018-11-28T15:41:40.755Z,74.14
2018-11-28T15:44:10.646Z,73.91
2018-11-28T15:46:40.899Z,74.31
2018-11-28T15:49:12.407Z,75.93
2018-11-28T15:51:41.940Z,75.57
2018-11-28T15:54:11.457Z,75.89
2018-11-28T15:56:41.024Z,75.39
2018-11-28T15:59:10.492Z,75.63
2018-11-28T16:01:40.159Z,75.60
2018-11-28T16:04:09.574Z,76.08
2018-11-28T16:06:39.532Z,76.05
2018-11-28T16:09:13.669Z,76.56
2018-11-28T16:11:43.083Z,76.75
2018-11-28T16:14:12.967Z,76.71
2018-11-28T16:16:42.440Z,78.13
2018-11-28T16:19:12.012Z,78.77
2018-11-28T16:21:41.817Z,79.37
2018-11-28T16:24:12.936Z,80.22
2018-11-28T16:26:43.155Z,80.71
2018-11-28T16:29:14.553Z,79.76
2018-11-28T16:31:44.463Z,80.84
2018-11-28T16:34:14.855Z,79.61
2018-11-28T16:36:44.882Z,79.50
2018-11-28T16:39:15.979Z,79.58
2018-11-28T16:41:45.914Z,80.43
2018-11-28T16:44:16.367Z,80.60
2018-11-28T16:46:46.936Z,81.46
2018-11-28T16:49:17.809Z,81.51
2018-11-28T16:51:48.003Z,81.47
2018-11-28T16:54:18.048Z,81.86
2018-11-28T16:56:47.645Z,80.49
2018-11-28T16:59:18.103Z,81.60
2018-11-28T17:01:47.887Z,81.85
2018-11-28T17:04:17.970Z,82.43
2018-11-28T17:06:48.413Z,83.78
2018-11-28T17:09:18.564Z,83.85
2018-11-28T17:11:48.753Z,83.60
2018-11-28T17:14:18.737Z,84.19
2018-11-28T17:16:48.417Z,84.99
2018-11-28T17:19:18.439Z,85.01
2018-11-28T17:21:48.483Z,85.23
2018-11-28T17:24:18.406Z,85.25
2018-11-28T17:26:48.376Z,85.03
2018-11-28T17:29:18.583Z,85.64
2018-11-28T17:31:48.427Z,85.84
2018-11-28T17:34:18.142Z,85.79
2018-11-28T17:36:48.178Z,85.98
2018-11-28T17:39:17.882Z,86.00
2018-11-28T17:41:47.994Z,85.32
2018-11-28T17:44:19.270Z,85.65
2018-11-28T17:46:49.617Z,85.93
2018-11-28T17:49:19.784Z,86.20
2018-11-28T17:51:50.843Z,86.52
2018-11-28T17:54:21.073Z,86.58
2018-11-28T17:56:51.250Z,86.83
2018-11-28T17:59:21.928Z,86.72
2018-11-28T18:01:52.653Z,87.13
2018-11-28T18:04:22.840Z,86.82
2018-11-28T18:06:52.923Z,87.25
2018-11-28T18:09:23.479Z,87.31
2018-11-28T18:11:53.576Z,86.57
2018-11-28T18:14:23.694Z,86.61
2018-11-28T18:16:53.734Z,87.42
2018-11-28T18:19:23.732Z,87.91
2018-11-28T18:21:53.930Z,88.10
2018-11-28T18:24:24.226Z,87.66
2018-11-28T18:26:54.344Z,87.30
2018-11-28T18:29:24.914Z,87.59
2018-11-28T18:31:55.904Z,87.88
2018-11-28T18:34:26.179Z,88.12
2018-11-28T18:36:56.206Z,88.71
2018-11-28T18:39:26.668Z,88.68
2018-11-28T18:41:56.815Z,88.85
2018-11-28T18:44:28.257Z,89.36
2018-11-28T18:46:58.157Z,89.62
2018-11-28T18:49:28.775Z,89.65
2018-11-28T18:51:59.107Z,90.31
2018-11-28T18:54:28.949Z,91.01
2018-11-28T18:56:58.881Z,91.19
2018-11-28T18:59:29.109Z,91.22
2018-11-28T19:02:00.543Z,91.31
2018-11-28T19:04:32.616Z,90.33
2018-11-28T19:07:03.047Z,91.00
2018-11-28T19:09:38.707Z,90.85
2018-11-28T19:12:10.051Z,90.99
2018-11-28T19:14:40.118Z,91.32
2018-11-28T19:17:10.402Z,91.26
2018-11-28T19:19:40.668Z,91.53
2018-11-28T19:22:10.852Z,91.96
2018-11-28T19:24:41.727Z,91.99
2018-11-28T19:27:13.426Z,91.15
2018-11-28T19:29:44.293Z,91.02
2018-11-28T19:32:16.374Z,90.69
2018-11-28T19:34:47.558Z,90.17
2018-11-28T19:37:19.000Z,90.06
2018-11-28T19:39:48.865Z,90.31
2018-11-28T19:42:19.028Z,90.93
2018-11-28T19:44:49.541Z,90.94
2018-11-28T19:47:19.693Z,91.14
2018-11-28T19:49:49.628Z,91.26
2018-11-28T19:52:20.038Z,91.81
2018-11-28T19:54:51.200Z,92.23
2018-11-28T19:57:22.462Z,93.43
2018-11-28T19:59:54.385Z,93.66
2018-11-28T20:02:24.842Z,93.90
2018-11-28T20:04:55.754Z,93.92
2018-11-28T20:07:26.089Z,94.26
2018-11-28T20:09:59.215Z,93.90
2018-11-28T20:12:29.096Z,93.96
2018-11-28T20:14:59.326Z,93.86
2018-11-28T20:17:32.634Z,93.55
2018-11-28T20:20:03.170Z,92.88
2018-11-28T20:22:34.997Z,92.74
2018-11-28T20:25:06.473Z,92.38
2018-11-28T20:27:37.544Z,92.78
2018-11-28T20:30:17.958Z,92.96
2018-11-28T20:32:49.464Z,93.83
2018-11-28T20:35:20.665Z,93.72
2018-11-28T20:37:50.568Z,93.49
2018-11-28T20:40:23.832Z,94.32
2018-11-28T20:42:55.352Z,94.21
2018-11-28T20:45:25.585Z,93.89
2018-11-28T20:47:55.459Z,93.83
2018-11-28T20:50:27.765Z,94.00
2018-11-28T20:53:00.601Z,93.71
2018-11-28T20:55:31.237Z,93.69
2018-11-28T20:58:01.243Z,93.78
2018-11-28T21:00:30.999Z,93.70
2018-11-28T21:03:01.555Z,93.69
2018-11-28T21:05:31.562Z,93.86
2018-11-28T21:08:01.679Z,93.67
2018-11-28T21:10:36.853Z,93.36
2018-11-28T21:13:08.047Z,93.62
2018-11-28T21:15:37.881Z,93.67
2018-11-28T21:18:09.373Z,94.17
2018-11-28T21:20:40.508Z,93.56
2018-11-28T21:23:11.850Z,94.02
2018-11-28T21:25:42.041Z,93.66
2018-11-28T21:28:11.983Z,93.91
2018-11-28T21:30:41.640Z,93.85
2018-11-28T21:33:12.452Z,93.98
2018-11-28T21:35:43.951Z,93.69
2018-11-28T21:38:13.777Z,93.82
2018-11-28T21:40:43.393Z,94.17
2018-11-28T21:43:12.917Z,93.83
2018-11-28T21:45:42.468Z,93.63
2018-11-28T21:48:15.464Z,93.72
2018-11-28T21:50:45.828Z,93.80
2018-11-28T21:53:16.127Z,93.59
2018-11-28T21:55:46.053Z,93.38
2018-11-28T21:58:15.760Z,93.69
2018-11-28T22:00:45.644Z,93.79
2018-11-28T22:03:15.401Z,93.56
2018-11-28T22:05:45.002Z,93.29
2018-11-28T22:08:15.314Z,93.21
2018-11-28T22:10:45.502Z,93.09
2018-11-28T22:13:15.674Z,93.17
2018-11-28T22:15:45.927Z,93.50
2018-11-28T22:18:15.554Z,93.34
2018-11-28T22:20:45.238Z,93.46
2018-11-28T22:23:15.600Z,93.44
2018-11-28T22:25:46.272Z,93.48
2018-11-28T22:28:16.074Z,93.44
2018-11-28T22:30:46.129Z,92.73
2018-11-28T22:33:16.319Z,92.83
2018-11-28T22:35:46.474Z,92.71
2018-11-28T22:38:15.754Z,92.54
2018-11-28T22:40:45.853Z,92.75
2018-11-28T22:43:15.203Z,92.85
2018-11-28T22:45:45.605Z,92.31
2018-11-28T22:48:15.139Z,92.95
2018-11-28T22:50:44.763Z,92.99
2018-11-28T22:53:14.167Z,92.75
2018-11-28T22:55:43.668Z,92.80
2018-11-28T22:58:13.398Z,92.80
2018-11-28T23:00:48.693Z,92.78
2018-11-28T23:03:18.790Z,92.15
2018-11-28T23:05:50.765Z,91.79
2018-11-28T23:08:21.122Z,91.71
2018-11-28T23:10:52.110Z,91.90
2018-11-28T23:13:23.895Z,91.68
2018-11-28T23:15:53.533Z,91.93
2018-11-28T23:18:23.570Z,92.07
2018-11-28T23:20:53.893Z,91.90
2018-11-28T23:23:23.253Z,92.78
2018-11-28T23:25:54.797Z,92.85
2018-11-28T23:28:24.195Z,92.74
2018-11-28T23:30:53.664Z,93.02
2018-11-28T23:33:23.028Z,92.92
2018-11-28T23:35:53.370Z,92.98
2018-11-28T23:38:24.158Z,92.63
2018-11-28T23:40:54.386Z,93.10
2018-11-28T23:43:24.410Z,92.58
2018-11-28T23:45:54.020Z,92.43
2018-11-28T23:48:24.226Z,92.49
2018-11-28T23:50:54.239Z,93.02
2018-11-28T23:53:24.219Z,92.26
2018-11-28T23:55:53.835Z,92.70
2018-11-28T23:58:23.543Z,92.52
